createdAt,value
2022-09-26T00:01:43.947Z,99911.13
2022-09-26T00:04:22.318Z,99902.13
2022-09-26T00:06:53.152Z,99904.91
2022-09-26T00:09:22.723Z,99902.69
2022-09-26T00:11:51.311Z,99903.50
2022-09-26T00:14:22.912Z,99897.69
2022-09-26T00:16:51.713Z,99880.09
2022-09-26T00:19:22.170Z,99902.97
2022-09-26T00:21:50.790Z,99898.53
2022-09-26T00:24:19.796Z,99891.50
2022-09-26T00:26:48.272Z,99891.34
2022-09-26T00:29:16.926Z,99898.66
2022-09-26T00:31:47.643Z,99894.72
2022-09-26T00:34:18.343Z,99893.09
2022-09-26T00:36:48.243Z,99886.00
2022-09-26T00:39:17.252Z,99886.19
2022-09-26T00:41:46.216Z,99888.97
2022-09-26T00:44:41.351Z,99881.09
2022-09-26T00:47:22.823Z,99883.78
2022-09-26T00:49:53.201Z,99884.09
2022-09-26T00:52:27.899Z,99886.28
2022-09-26T00:54:59.744Z,99879.03
2022-09-26T00:57:34.814Z,99879.47
2022-09-26T01:00:07.843Z,99883.81
2022-09-26T01:02:36.752Z,99884.88
2022-09-26T01:05:06.923Z,99887.06
2022-09-26T01:07:37.325Z,99889.28
2022-09-26T01:10:08.486Z,99892.59
2022-09-26T01:12:38.110Z,99895.56
2022-09-26T01:15:09.604Z,99894.34
2022-09-26T01:17:40.215Z,99893.41
2022-09-26T01:20:27.785Z,99890.88
2022-09-26T01:23:15.286Z,99896.84
2022-09-26T01:26:04.404Z,99894.50
2022-09-26T01:28:55.637Z,99897.41
2022-09-26T01:31:36.410Z,99905.41
2022-09-26T01:34:14.370Z,99898.22
2022-09-26T01:37:04.535Z,99903.22
2022-09-26T01:39:44.415Z,99902.34
2022-09-26T01:42:22.246Z,99896.50
2022-09-26T01:44:57.206Z,99898.47
2022-09-26T01:47:33.124Z,99892.69
2022-09-26T01:50:07.869Z,99893.13
2022-09-26T01:52:40.774Z,99896.72
2022-09-26T01:55:14.035Z,99905.28
2022-09-26T01:57:48.729Z,99895.56
2022-09-26T02:00:18.669Z,99909.66
2022-09-26T02:02:51.193Z,99906.19
2022-09-26T02:05:26.629Z,99904.56
2022-09-26T02:08:00.666Z,99908.66
2022-09-26T02:10:35.391Z,99920.75
2022-09-26T02:13:09.367Z,99918.69
2022-09-26T02:15:40.523Z,99921.56
2022-09-26T02:18:16.474Z,99915.19
2022-09-26T02:20:50.747Z,99928.84
2022-09-26T02:23:19.262Z,99922.34
2022-09-26T02:25:48.026Z,99915.53
2022-09-26T02:28:17.518Z,99925.88
2022-09-26T02:30:49.318Z,99920.94
2022-09-26T02:33:19.772Z,99924.75
2022-09-26T02:35:55.479Z,99920.50
2022-09-26T02:38:28.759Z,99912.16
2022-09-26T02:41:14.718Z,99926.25
2022-09-26T02:43:58.142Z,99927.91
2022-09-26T02:46:44.091Z,99925.75
2022-09-26T02:49:33.116Z,99908.34
2022-09-26T02:52:18.002Z,99918.34
2022-09-26T02:54:58.006Z,99919.19
2022-09-26T02:57:36.434Z,99893.63
2022-09-26T03:00:10.043Z,99909.34
2022-09-26T03:02:43.733Z,99903.91
2022-09-26T03:05:23.675Z,99921.25
2022-09-26T03:07:57.729Z,99917.44
2022-09-26T03:10:29.552Z,99923.19
2022-09-26T03:13:02.495Z,99919.63
2022-09-26T03:15:32.885Z,99928.53
2022-09-26T03:18:03.601Z,99920.47
2022-09-26T03:20:33.979Z,99925.31
2022-09-26T03:23:04.316Z,99921.38
2022-09-26T03:25:33.709Z,99909.00
2022-09-26T03:28:08.132Z,99903.31
2022-09-26T03:30:36.605Z,99910.69
2022-09-26T03:33:24.040Z,99909.16
2022-09-26T03:35:54.022Z,99909.16
2022-09-26T03:38:23.283Z,99921.06
2022-09-26T03:41:02.731Z,99921.50
2022-09-26T03:43:46.382Z,99927.72
2022-09-26T03:46:16.463Z,99920.31
2022-09-26T03:48:45.298Z,99919.38
2022-09-26T03:51:15.739Z,99913.06
2022-09-26T03:53:47.326Z,99912.94
2022-09-26T03:56:20.487Z,99921.50
2022-09-26T03:58:50.195Z,99921.38
2022-09-26T04:04:21.987Z,99926.63
2022-09-26T04:06:51.910Z,99922.81
2022-09-26T04:09:21.077Z,99930.50
2022-09-26T04:11:53.310Z,99923.69
2022-09-26T04:14:22.864Z,99925.97
2022-09-26T04:16:58.536Z,99922.03
2022-09-26T04:19:37.874Z,99924.19
2022-09-26T04:22:09.114Z,99917.72
2022-09-26T04:24:38.070Z,99920.25
2022-09-26T04:27:08.737Z,99908.22
2022-09-26T04:29:38.050Z,99920.25
2022-09-26T04:32:17.735Z,99917.78
2022-09-26T04:35:09.621Z,99918.16
2022-09-26T04:37:40.454Z,99914.00
2022-09-26T04:40:11.293Z,99923.91
2022-09-26T04:42:46.088Z,99924.78
2022-09-26T04:45:14.525Z,99933.34
2022-09-26T04:47:43.407Z,99919.84
2022-09-26T04:50:26.701Z,99924.34
2022-09-26T04:53:12.407Z,99933.59
2022-09-26T04:55:48.828Z,99940.75
2022-09-26T04:58:18.443Z,99929.84
2022-09-26T05:00:49.972Z,99931.75
2022-09-26T05:03:39.407Z,99930.97
2022-09-26T05:06:09.221Z,99930.97
2022-09-26T05:08:39.639Z,99942.50
2022-09-26T05:11:09.717Z,99938.28
2022-09-26T05:13:39.140Z,99923.50
2022-09-26T05:16:09.910Z,99932.91
2022-09-26T05:18:40.495Z,99935.19
2022-09-26T05:21:09.999Z,99932.97
2022-09-26T05:23:57.002Z,99939.00
2022-09-26T05:26:28.906Z,99939.59
2022-09-26T05:29:07.047Z,99937.50
2022-09-26T05:31:53.347Z,99947.59
2022-09-26T05:34:26.218Z,99930.28
2022-09-26T05:36:56.670Z,99948.06
2022-09-26T05:39:44.328Z,99943.91
2022-09-26T05:42:15.727Z,99940.69
2022-09-26T05:44:44.859Z,99949.28
2022-09-26T05:47:13.469Z,99946.13
2022-09-26T05:49:42.157Z,99954.28
2022-09-26T05:52:14.777Z,99953.63
2022-09-26T05:54:44.630Z,99955.31
2022-09-26T05:57:33.306Z,99962.97
2022-09-26T06:00:02.625Z,99962.75
2022-09-26T06:02:46.299Z,99977.44
2022-09-26T06:05:25.667Z,99978.50
2022-09-26T06:08:29.623Z,99968.94
2022-09-26T06:11:22.762Z,99981.16
2022-09-26T06:13:52.032Z,99977.22
2022-09-26T06:16:22.532Z,99976.38
2022-09-26T06:18:53.102Z,99981.19
2022-09-26T06:21:21.966Z,99975.44
2022-09-26T06:23:56.216Z,99982.41
2022-09-26T06:26:29.083Z,99987.84
2022-09-26T06:29:00.433Z,99996.31
2022-09-26T06:31:31.424Z,99987.81
2022-09-26T06:34:13.062Z,99997.38
2022-09-26T06:37:00.655Z,99990.84
2022-09-26T06:39:35.814Z,99996.00
2022-09-26T06:42:08.552Z,100006.38
2022-09-26T06:44:50.092Z,100010.78
2022-09-26T06:47:30.465Z,100012.50
2022-09-26T06:50:22.201Z,100021.34
2022-09-26T06:52:54.916Z,100017.22
2022-09-26T06:55:25.675Z,100021.16
2022-09-26T06:57:55.606Z,100028.69
2022-09-26T07:00:29.912Z,100033.72
2022-09-26T07:03:26.777Z,100033.94
2022-09-26T07:06:07.629Z,100045.19
2022-09-26T07:09:01.074Z,100042.88
2022-09-26T07:12:13.611Z,100023.94
2022-09-26T07:14:36.154Z,100051.19
2022-09-26T07:17:16.703Z,100056.34
2022-09-26T07:20:12.781Z,100058.75
2022-09-26T07:23:17.022Z,100071.88
2022-09-26T07:25:47.389Z,100074.00
2022-09-26T07:28:16.322Z,100077.09
2022-09-26T07:30:51.666Z,100065.75
2022-09-26T07:33:29.433Z,100073.56
2022-09-26T07:36:05.461Z,100071.00
2022-09-26T07:38:34.470Z,100068.63
2022-09-26T07:41:04.732Z,100071.97
2022-09-26T07:44:19.211Z,100069.53
2022-09-26T07:46:41.779Z,100070.78
2022-09-26T07:49:28.736Z,100077.81
2022-09-26T07:52:09.655Z,100084.03
2022-09-26T07:54:56.935Z,100088.03
2022-09-26T07:57:46.759Z,100084.59
2022-09-26T08:00:41.535Z,100080.25
2022-09-26T08:03:33.025Z,100078.09
2022-09-26T08:06:05.103Z,100080.66
2022-09-26T08:08:33.984Z,100072.09
2022-09-26T08:11:04.416Z,100086.13
2022-09-26T08:14:01.473Z,100095.81
2022-09-26T08:16:41.787Z,100091.97
2022-09-26T08:19:17.554Z,100092.31
2022-09-26T08:21:47.047Z,100088.16
2022-09-26T08:24:15.661Z,100091.28
2022-09-26T08:27:04.509Z,100097.00
2022-09-26T08:29:36.199Z,100097.31
2022-09-26T08:32:04.780Z,100089.75
2022-09-26T08:34:39.145Z,100094.69
2022-09-26T08:37:36.509Z,100097.94
2022-09-26T08:40:32.466Z,100097.50
2022-09-26T08:43:36.135Z,100103.47
2022-09-26T08:46:42.997Z,100102.41
2022-09-26T08:49:56.687Z,100106.66
2022-09-26T08:52:30.770Z,100112.47
2022-09-26T08:55:03.254Z,100100.56
2022-09-26T08:57:39.436Z,100117.00
2022-09-26T09:00:19.286Z,100117.13
2022-09-26T09:03:05.365Z,100109.16
2022-09-26T09:05:39.277Z,100107.00
2022-09-26T09:08:14.070Z,100109.19
2022-09-26T09:10:59.307Z,100107.22
2022-09-26T09:13:57.681Z,100121.69
2022-09-26T09:16:59.806Z,100125.22
2022-09-26T09:20:11.359Z,100124.97
2022-09-26T09:23:19.895Z,100130.81
2022-09-26T09:29:18.716Z,100135.28
2022-09-26T09:32:05.721Z,100144.78
2022-09-26T09:34:57.942Z,100136.06
2022-09-26T09:37:50.202Z,100135.34
2022-09-26T09:40:34.689Z,100134.16
2022-09-26T09:43:07.184Z,100136.56
2022-09-26T09:45:41.787Z,100133.84
2022-09-26T09:48:13.170Z,100141.81
2022-09-26T09:50:51.765Z,100156.16
2022-09-26T09:53:35.707Z,100161.81
2022-09-26T09:56:14.340Z,100158.31
2022-09-26T09:59:04.768Z,100172.84
2022-09-26T10:01:48.331Z,100171.88
2022-09-26T10:04:28.998Z,100180.50
2022-09-26T10:06:57.533Z,100169.22
2022-09-26T10:09:39.399Z,100174.03
2022-09-26T10:12:30.820Z,100176.56
2022-09-26T10:15:19.850Z,100167.59
2022-09-26T10:18:27.409Z,100154.03
2022-09-26T10:21:19.152Z,100160.72
2022-09-26T10:23:50.613Z,100165.78
2022-09-26T10:26:39.459Z,100162.38
2022-09-26T10:29:24.773Z,100168.88
2022-09-26T10:31:58.707Z,100163.56
2022-09-26T10:34:29.635Z,100167.78
2022-09-26T10:36:59.706Z,100154.25
2022-09-26T10:39:49.306Z,100147.31
2022-09-26T10:42:21.216Z,100145.78
2022-09-26T10:44:58.154Z,100134.56
2022-09-26T10:48:06.298Z,100152.94
2022-09-26T10:51:01.977Z,100146.72
2022-09-26T10:53:47.643Z,100153.25
2022-09-26T10:56:23.948Z,100142.88
2022-09-26T10:58:57.310Z,100143.63
2022-09-26T11:01:31.510Z,100148.69
2022-09-26T11:04:13.643Z,100151.19
2022-09-26T11:07:02.301Z,100149.56
2022-09-26T11:09:39.697Z,100144.84
2022-09-26T11:12:29.533Z,100141.75
2022-09-26T11:15:10.250Z,100137.31
2022-09-26T11:17:45.406Z,100141.03
2022-09-26T11:20:21.875Z,100128.78
2022-09-26T11:22:58.634Z,100137.81
2022-09-26T11:25:30.591Z,100134.69
2022-09-26T11:28:06.199Z,100136.44
2022-09-26T11:31:09.169Z,100128.38
2022-09-26T11:33:45.407Z,100124.47
2022-09-26T11:37:08.613Z,100108.03
2022-09-26T11:39:58.794Z,100118.56
2022-09-26T11:42:43.059Z,100113.75
2022-09-26T11:45:20.732Z,100102.16
2022-09-26T11:48:23.324Z,100114.91
2022-09-26T11:51:22.411Z,100100.56
2022-09-26T11:54:06.855Z,100103.91
2022-09-26T11:56:59.973Z,100096.69
2022-09-26T11:59:46.948Z,100102.03
2022-09-26T12:02:54.482Z,100096.00
2022-09-26T12:05:33.215Z,100094.91
2022-09-26T12:08:34.646Z,100092.72
2022-09-26T12:11:16.638Z,100103.09
2022-09-26T12:13:54.437Z,100096.81
2022-09-26T12:16:30.362Z,100099.69
2022-09-26T12:19:06.334Z,100093.31
2022-09-26T12:22:07.898Z,100083.84
2022-09-26T12:24:47.041Z,100098.53
2022-09-26T12:27:22.191Z,100087.09
2022-09-26T12:29:59.482Z,100101.66
2022-09-26T12:32:40.480Z,100090.19
2022-09-26T12:35:22.099Z,100096.13
2022-09-26T12:38:10.628Z,100098.91
2022-09-26T12:40:53.789Z,100085.72
2022-09-26T12:44:04.725Z,100092.94
2022-09-26T12:47:03.991Z,100088.59
2022-09-26T12:49:48.433Z,100090.06
2022-09-26T12:52:27.680Z,100077.19
2022-09-26T12:55:14.207Z,100063.28
2022-09-26T12:58:00.932Z,100061.78
2022-09-26T13:00:39.288Z,100051.41
2022-09-26T13:03:35.746Z,100052.22
2022-09-26T13:06:36.969Z,100047.34
2022-09-26T13:09:17.099Z,100042.63
2022-09-26T13:11:55.197Z,100038.91
2022-09-26T13:14:55.348Z,100015.97
2022-09-26T13:17:27.173Z,100020.16
2022-09-26T13:20:01.045Z,100009.41
2022-09-26T13:22:37.932Z,100014.22
2022-09-26T13:25:17.809Z,100013.13
2022-09-26T13:27:54.880Z,100004.69
2022-09-26T13:30:27.789Z,99995.47
2022-09-26T13:33:02.470Z,100002.44
2022-09-26T13:35:35.978Z,100007.00
2022-09-26T13:38:19.493Z,100012.34
2022-09-26T13:40:54.634Z,100004.22
2022-09-26T13:43:39.886Z,100003.22
2022-09-26T13:46:21.940Z,100011.06
2022-09-26T13:49:00.976Z,100001.38
2022-09-26T13:51:40.399Z,100001.13
2022-09-26T13:54:20.146Z,99995.75
2022-09-26T13:56:50.102Z,99986.22
2022-09-26T13:59:52.638Z,99984.91
2022-09-26T14:02:29.104Z,99986.94
2022-09-26T14:05:29.825Z,99975.47
2022-09-26T14:08:15.850Z,99970.25
2022-09-26T14:10:54.784Z,99963.88
2022-09-26T14:13:42.257Z,99961.44
2022-09-26T14:16:35.829Z,99970.09
2022-09-26T14:19:10.082Z,99971.97
2022-09-26T14:21:43.044Z,99968.59
2022-09-26T14:24:37.099Z,99961.53
2022-09-26T14:27:44.604Z,99967.53
2022-09-26T14:30:28.599Z,99967.81
2022-09-26T14:33:02.324Z,99971.13
2022-09-26T14:35:34.707Z,99970.09
2022-09-26T14:38:05.770Z,99962.50
2022-09-26T14:40:37.857Z,99968.69
2022-09-26T14:43:14.125Z,99948.06
2022-09-26T14:45:49.852Z,99966.41
2022-09-26T14:48:33.383Z,99955.03
2022-09-26T14:51:06.314Z,99950.50
2022-09-26T14:53:39.577Z,99960.81
2022-09-26T14:56:12.286Z,99960.03
2022-09-26T14:58:52.733Z,99972.38
2022-09-26T15:01:32.083Z,99966.59
2022-09-26T15:04:04.184Z,99962.66
2022-09-26T15:06:41.242Z,99963.72
2022-09-26T15:09:12.989Z,99971.50
2022-09-26T15:11:45.573Z,99962.47
2022-09-26T15:14:22.648Z,99948.06
2022-09-26T15:16:54.818Z,99964.13
2022-09-26T15:19:28.688Z,99974.59
2022-09-26T15:22:02.571Z,99957.13
2022-09-26T15:24:33.418Z,99966.16
2022-09-26T15:27:09.715Z,99968.47
2022-09-26T15:29:44.654Z,99971.53
2022-09-26T15:32:17.104Z,99977.09
2022-09-26T15:34:47.085Z,99978.13
2022-09-26T15:37:21.322Z,99973.53
2022-09-26T15:39:49.769Z,99976.59
2022-09-26T15:42:44.527Z,99984.66
2022-09-26T15:45:27.246Z,99983.44
2022-09-26T15:47:56.797Z,99988.56
2022-09-26T15:50:30.079Z,99985.06
2022-09-26T15:53:07.197Z,99987.16
2022-09-26T15:55:46.699Z,99987.72
2022-09-26T15:58:18.676Z,99983.03
2022-09-26T16:00:52.550Z,99995.34
2022-09-26T16:03:38.806Z,99985.88
2022-09-26T16:06:23.060Z,99981.81
2022-09-26T16:09:00.961Z,99978.88
2022-09-26T16:11:29.953Z,99985.69
2022-09-26T16:13:58.469Z,99984.03
2022-09-26T16:16:32.089Z,99990.56
2022-09-26T16:19:05.412Z,99989.09
2022-09-26T16:21:37.758Z,99980.84
2022-09-26T16:24:30.289Z,99986.16
2022-09-26T16:26:58.818Z,99986.63
2022-09-26T16:29:33.092Z,99980.78
2022-09-26T16:32:02.715Z,99990.25
2022-09-26T16:34:31.601Z,99991.00
2022-09-26T16:37:00.184Z,99993.88
2022-09-26T16:39:31.473Z,99993.50
2022-09-26T16:42:03.419Z,99991.03
2022-09-26T16:44:36.243Z,99988.13
2022-09-26T16:47:09.280Z,99994.31
2022-09-26T16:49:45.915Z,99995.09
2022-09-26T16:52:28.512Z,100006.09
2022-09-26T16:55:00.677Z,100002.84
2022-09-26T16:57:31.392Z,100002.66
2022-09-26T17:00:16.093Z,100001.59
2022-09-26T17:02:44.739Z,100004.50
2022-09-26T17:05:18.759Z,99998.53
2022-09-26T17:07:48.800Z,99994.59
2022-09-26T17:10:20.826Z,100003.00
2022-09-26T17:12:51.567Z,99995.09
2022-09-26T17:15:30.176Z,99984.09
2022-09-26T17:18:00.583Z,99997.78
2022-09-26T17:20:29.995Z,99993.06
2022-09-26T17:23:07.843Z,99993.84
2022-09-26T17:25:52.998Z,99988.00
2022-09-26T17:28:32.466Z,99999.84
2022-09-26T17:31:06.433Z,99998.56
2022-09-26T17:33:38.006Z,100001.97
2022-09-26T17:36:10.926Z,100009.22
2022-09-26T17:38:43.470Z,99998.53
2022-09-26T17:41:13.511Z,100007.81
2022-09-26T17:43:42.055Z,100018.16
2022-09-26T17:46:15.553Z,100013.53
2022-09-26T17:48:45.796Z,100016.00
2022-09-26T17:51:15.111Z,100017.09
2022-09-26T17:53:50.548Z,100011.72
2022-09-26T17:56:21.334Z,100018.69
2022-09-26T17:58:52.063Z,100023.09
2022-09-26T18:01:24.263Z,100024.22
2022-09-26T18:03:57.188Z,100023.19
2022-09-26T18:06:29.143Z,100022.53
2022-09-26T18:09:01.361Z,100037.19
2022-09-26T18:11:33.637Z,100047.25
2022-09-26T18:14:04.039Z,100050.38
2022-09-26T18:16:32.472Z,100049.38
2022-09-26T18:19:06.892Z,100052.72
2022-09-26T18:24:19.931Z,100042.19
2022-09-26T18:26:51.657Z,100042.19
2022-09-26T18:29:27.328Z,100062.31
2022-09-26T18:31:56.372Z,100053.91
2022-09-26T18:34:26.082Z,100059.06
2022-09-26T18:36:57.216Z,100062.13
2022-09-26T18:39:26.127Z,100062.84
2022-09-26T18:42:01.109Z,100061.53
2022-09-26T18:44:35.252Z,100069.88
2022-09-26T18:47:06.958Z,100072.22
2022-09-26T18:49:36.948Z,100068.75
2022-09-26T18:52:05.560Z,100079.91
2022-09-26T18:54:35.350Z,100079.59
2022-09-26T18:57:24.770Z,100081.94
2022-09-26T18:59:53.632Z,100090.94
2022-09-26T19:02:24.773Z,100086.47
2022-09-26T19:04:56.141Z,100090.25
2022-09-26T19:07:25.289Z,100092.25
2022-09-26T19:09:53.753Z,100101.06
2022-09-26T19:12:24.124Z,100102.88
2022-09-26T19:14:52.510Z,100101.56
2022-09-26T19:17:20.969Z,100103.91
2022-09-26T19:19:49.402Z,100110.53
2022-09-26T19:22:18.621Z,100106.41
2022-09-26T19:24:50.271Z,100104.56
2022-09-26T19:27:21.416Z,100108.22
2022-09-26T19:29:58.452Z,100110.88
2022-09-26T19:32:32.941Z,100120.84
2022-09-26T19:35:03.583Z,100121.97
2022-09-26T19:37:32.051Z,100136.09
2022-09-26T19:40:00.445Z,100130.09
2022-09-26T19:42:29.268Z,100141.38
2022-09-26T19:44:59.297Z,100144.84
2022-09-26T19:47:29.464Z,100152.56
2022-09-26T19:49:57.900Z,100145.09
2022-09-26T19:52:26.458Z,100154.53
2022-09-26T19:54:55.017Z,100151.56
2022-09-26T19:57:24.542Z,100155.84
2022-09-26T19:59:52.955Z,100155.31
2022-09-26T20:02:34.109Z,100153.78
2022-09-26T20:05:02.587Z,100154.28
2022-09-26T20:07:31.023Z,100157.38
2022-09-26T20:09:59.446Z,100155.88
2022-09-26T20:12:27.847Z,100160.94
2022-09-26T20:14:56.226Z,100173.03
2022-09-26T20:17:29.428Z,100166.44
2022-09-26T20:19:59.101Z,100169.03
2022-09-26T20:22:28.053Z,100169.75
2022-09-26T20:24:57.029Z,100173.63
2022-09-26T20:27:29.055Z,100181.56
2022-09-26T20:30:16.066Z,100193.09
2022-09-26T20:32:46.235Z,100201.25
2022-09-26T20:35:16.326Z,100201.53
2022-09-26T20:37:45.370Z,100200.09
2022-09-26T20:40:18.451Z,100205.84
2022-09-26T20:42:50.210Z,100212.94
2022-09-26T20:45:21.944Z,100209.31
2022-09-26T20:47:51.845Z,100204.25
2022-09-26T20:50:21.695Z,100207.41
2022-09-26T20:52:50.084Z,100212.13
2022-09-26T20:55:20.093Z,100218.91
2022-09-26T20:57:48.906Z,100219.56
2022-09-26T21:00:18.037Z,100217.69
2022-09-26T21:02:48.093Z,100221.91
2022-09-26T21:05:20.328Z,100219.41
2022-09-26T21:07:48.767Z,100224.09
2022-09-26T21:10:22.909Z,100224.09
2022-09-26T21:12:51.446Z,100222.34
2022-09-26T21:15:20.211Z,100224.34
2022-09-26T21:17:49.906Z,100220.06
2022-09-26T21:20:25.117Z,100215.06
2022-09-26T21:23:02.094Z,100223.41
2022-09-26T21:25:32.852Z,100218.19
2022-09-26T21:28:04.218Z,100220.72
2022-09-26T21:30:32.648Z,100227.13
2022-09-26T21:33:01.682Z,100238.69
2022-09-26T21:35:33.409Z,100242.34
2022-09-26T21:38:02.236Z,100240.38
2022-09-26T21:40:33.101Z,100238.84
2022-09-26T21:43:06.937Z,100233.56
2022-09-26T21:45:35.305Z,100241.09
2022-09-26T21:48:03.910Z,100242.47
2022-09-26T21:50:33.894Z,100245.53
2022-09-26T21:53:06.305Z,100248.72
2022-09-26T21:55:38.843Z,100249.44
2022-09-26T21:58:13.139Z,100244.56
2022-09-26T22:00:41.979Z,100240.13
2022-09-26T22:03:10.753Z,100245.81
2022-09-26T22:05:40.620Z,100240.81
2022-09-26T22:08:09.070Z,100244.84
2022-09-26T22:10:38.482Z,100247.78
2022-09-26T22:13:07.009Z,100258.75
2022-09-26T22:15:35.474Z,100256.53
2022-09-26T22:18:03.853Z,100255.09
2022-09-26T22:20:32.263Z,100262.16
2022-09-26T22:23:02.524Z,100262.44
2022-09-26T22:25:31.202Z,100256.78
2022-09-26T22:27:59.933Z,100257.88
2022-09-26T22:30:28.477Z,100262.34
2022-09-26T22:32:56.911Z,100268.56
2022-09-26T22:35:25.479Z,100271.88
2022-09-26T22:37:53.939Z,100277.13
2022-09-26T22:40:23.978Z,100277.13
2022-09-26T22:42:52.453Z,100282.47
2022-09-26T22:45:20.885Z,100284.59
2022-09-26T22:47:49.275Z,100286.78
2022-09-26T22:50:17.702Z,100297.34
2022-09-26T22:52:47.002Z,100291.59
2022-09-26T22:55:15.576Z,100297.50
2022-09-26T22:57:46.081Z,100306.69
2022-09-26T23:00:15.436Z,100302.22
2022-09-26T23:02:43.944Z,100306.50
2022-09-26T23:05:12.375Z,100307.03
2022-09-26T23:07:40.798Z,100307.56
2022-09-26T23:10:10.429Z,100306.19
2022-09-26T23:12:39.186Z,100312.19
2022-09-26T23:15:09.839Z,100318.38
2022-09-26T23:17:38.265Z,100316.63
2022-09-26T23:20:07.901Z,100320.31
2022-09-26T23:22:36.343Z,100321.06
2022-09-26T23:25:05.454Z,100321.19
2022-09-26T23:27:33.855Z,100312.31
2022-09-26T23:30:02.469Z,100311.22
2022-09-26T23:32:32.264Z,100316.22
2022-09-26T23:35:00.656Z,100313.13
2022-09-26T23:37:29.094Z,100310.81
2022-09-26T23:39:57.461Z,100305.44
2022-09-26T23:42:25.841Z,100310.25
2022-09-26T23:44:54.733Z,100313.34
2022-09-26T23:47:23.124Z,100309.19
2022-09-26T23:49:53.370Z,100307.31
2022-09-26T23:52:21.960Z,100301.72
2022-09-26T23:54:50.332Z,100294.94
2022-09-26T23:57:18.709Z,100285.91
2022-09-26T23:59:47.184Z,100296.88
